Time;durP1;ratioP1;P1;durP2;ratioP2;P2;SDS_P1;SDS_P2;PMS_P1;PMS_P2;Temp;Humidity;BMP_temperature;BMP_pressure;BME280_temperature;BME280_humidity;BME280_pressure;Samples;Min_cycle;Max_cycle;Signal;HPM_P1;HPM_P2
2023/10/18 00:00:28;;;;;;;8.65;1.80;;;;;;;;;;5014086;28;20108;-37
2023/10/18 00:02:55;;;;;;;8.10;2.75;;;;;;;;;;5014120;28;20034;-37
2023/10/18 00:05:25;;;;;;;13.73;4.47;;;;;;;;;;5014259;28;20080;-37
2023/10/18 00:07:52;;;;;;;18.60;5.78;;;;;;;;;;5013159;28;20064;-37
2023/10/18 00:10:20;;;;;;;19.75;6.88;;;;;;;;;;4994995;28;20481;-38
2023/10/18 00:12:48;;;;;;;23.83;8.10;;;;;;;;;;5012641;28;20117;-39
2023/10/18 00:15:15;;;;;;;27.13;9.57;;;;;;;;;;5005461;28;20030;-36
2023/10/18 00:17:42;;;;;;;21.85;8.13;;;;;;;;;;5013359;28;20034;-37
2023/10/18 00:20:30;;;;;;;22.75;7.65;;;;;;;;;;5013794;28;20026;-36
2023/10/18 00:22:57;;;;;;;14.93;6.95;;;;;;;;;;5013357;28;20065;-38
2023/10/18 00:25:24;;;;;;;24.92;7.43;;;;;;;;;;5007175;28;20034;-36
2023/10/18 00:27:51;;;;;;;24.00;7.63;;;;;;;;;;5018159;28;20036;-40
2023/10/18 00:30:18;;;;;;;23.75;6.90;;;;;;;;;;5017425;28;20037;-37
2023/10/18 00:32:45;;;;;;;32.72;6.75;;;;;;;;;;5018101;28;20038;-37
2023/10/18 00:35:18;;;;;;;33.83;7.53;;;;;;;;;;5022038;28;20030;-37
2023/10/18 00:37:45;;;;;;;31.90;7.30;;;;;;;;;;5018034;28;20030;-37
2023/10/18 00:40:21;;;;;;;31.25;7.05;;;;;;;;;;5023203;28;20033;-36
2023/10/18 00:42:52;;;;;;;32.38;7.53;;;;;;;;;;5010184;28;20122;-36
2023/10/18 00:45:21;;;;;;;33.97;8.00;;;;;;;;;;5021335;28;20032;-35
2023/10/18 00:47:49;;;;;;;34.22;7.72;;;;;;;;;;5019013;28;20112;-36
2023/10/18 00:50:18;;;;;;;32.58;7.95;;;;;;;;;;5021368;28;20045;-36
2023/10/18 00:52:45;;;;;;;30.45;7.95;;;;;;;;;;5014859;28;20125;-38
2023/10/18 00:55:12;;;;;;;35.67;8.63;;;;;;;;;;5014232;28;20032;-35
2023/10/18 00:57:40;;;;;;;51.88;8.75;;;;;;;;;;5013286;28;20033;-37
2023/10/18 01:00:09;;;;;;;30.58;8.27;;;;;;;;;;5012940;28;20396;-35
2023/10/18 01:02:39;;;;;;;34.17;7.95;;;;;;;;;;5023224;28;20476;-35
2023/10/18 01:05:13;;;;;;;32.65;7.07;;;;;;;;;;5023530;28;20041;-37
2023/10/18 01:07:40;;;;;;;36.97;7.40;;;;;;;;;;5008490;28;20088;-35
2023/10/18 01:10:09;;;;;;;33.88;7.63;;;;;;;;;;5031634;28;20419;-36
2023/10/18 01:12:39;;;;;;;28.77;7.72;;;;;;;;;;5029691;28;20104;-37
2023/10/18 01:15:07;;;;;;;33.42;8.32;;;;;;;;;;5020866;28;20396;-37
2023/10/18 01:17:42;;;;;;;36.47;8.80;;;;;;;;;;5022074;28;20026;-37
2023/10/18 01:20:28;;;;;;;32.72;8.75;;;;;;;;;;5021666;28;20033;-35
2023/10/18 01:22:55;;;;;;;50.33;9.63;;;;;;;;;;5020795;28;20022;-35
2023/10/18 01:25:22;;;;;;;41.20;8.88;;;;;;;;;;5025032;28;20037;-37
2023/10/18 01:27:49;;;;;;;39.17;8.77;;;;;;;;;;5012364;28;20036;-35
2023/10/18 01:30:16;;;;;;;42.00;8.82;;;;;;;;;;5023807;28;20041;-35
2023/10/18 01:32:44;;;;;;;38.92;9.18;;;;;;;;;;5030571;28;20029;-37
2023/10/18 01:35:15;;;;;;;32.85;7.72;;;;;;;;;;5017288;28;20030;-37
2023/10/18 01:37:43;;;;;;;37.90;8.73;;;;;;;;;;5017429;28;20496;-37
2023/10/18 01:43:06;;;;;;;37.17;8.13;;;;;;;;;;5012605;28;20069;-36
2023/10/18 01:45:37;;;;;;;34.20;7.90;;;;;;;;;;5001645;28;20391;-38
2023/10/18 01:48:09;;;;;;;45.30;8.88;;;;;;;;;;5015920;28;20029;-36
2023/10/18 01:50:39;;;;;;;35.80;7.43;;;;;;;;;;5016244;28;20692;-40
2023/10/18 01:53:15;;;;;;;28.60;7.15;;;;;;;;;;5021535;28;20041;-36
2023/10/18 01:55:57;;;;;;;28.63;6.53;;;;;;;;;;5005833;28;20453;-37
2023/10/18 01:58:24;;;;;;;24.93;7.03;;;;;;;;;;5008352;28;20381;-37
2023/10/18 02:00:53;;;;;;;31.23;7.90;;;;;;;;;;5015592;28;20144;-35
2023/10/18 02:03:21;;;;;;;28.08;6.55;;;;;;;;;;5030414;28;20038;-35
2023/10/18 02:05:48;;;;;;;26.90;6.68;;;;;;;;;;5010541;28;20499;-37
2023/10/18 02:08:16;;;;;;;22.20;6.65;;;;;;;;;;5000411;28;20433;-38
2023/10/18 02:10:45;;;;;;;32.03;5.88;;;;;;;;;;5011281;28;20029;-36
2023/10/18 02:13:15;;;;;;;31.80;6.88;;;;;;;;;;5018158;28;20030;-39
2023/10/18 02:15:42;;;;;;;23.67;5.45;;;;;;;;;;5003185;28;20025;-40
2023/10/18 02:18:10;;;;;;;21.17;5.68;;;;;;;;;;5028711;28;20037;-43
2023/10/18 02:20:50;;;;;;;17.58;4.88;;;;;;;;;;5029355;28;20033;-37
2023/10/18 02:23:18;;;;;;;26.77;5.22;;;;;;;;;;5028155;28;20044;-38
2023/10/18 02:25:45;;;;;;;20.48;5.50;;;;;;;;;;5027724;28;20095;-39
2023/10/18 02:28:23;;;;;;;25.30;5.68;;;;;;;;;;5012822;28;20028;-46
2023/10/18 02:30:57;;;;;;;21.48;4.82;;;;;;;;;;5011491;28;20052;-44
2023/10/18 02:33:38;;;;;;;21.20;4.50;;;;;;;;;;5011644;28;20038;-34
2023/10/18 02:36:11;;;;;;;22.58;4.93;;;;;;;;;;5009078;28;20057;-34
2023/10/18 02:38:41;;;;;;;15.45;5.45;;;;;;;;;;5011269;28;20022;-38
2023/10/18 02:41:29;;;;;;;17.65;4.28;;;;;;;;;;5011422;28;20028;-38
2023/10/18 02:44:00;;;;;;;23.40;4.57;;;;;;;;;;5003296;28;20050;-38
2023/10/18 02:46:27;;;;;;;19.58;4.60;;;;;;;;;;5002385;28;20464;-38
2023/10/18 02:49:00;;;;;;;23.92;4.70;;;;;;;;;;5001490;28;20027;-37
2023/10/18 02:51:31;;;;;;;17.73;4.18;;;;;;;;;;5000626;28;20040;-38
2023/10/18 02:54:17;;;;;;;21.50;4.53;;;;;;;;;;5000607;28;20038;-38
2023/10/18 02:56:51;;;;;;;12.27;3.55;;;;;;;;;;5004339;28;20034;-38
2023/10/18 02:59:20;;;;;;;16.27;3.88;;;;;;;;;;5002293;28;20024;-37
2023/10/18 03:01:49;;;;;;;11.55;4.00;;;;;;;;;;5004709;28;20038;-38
2023/10/18 03:04:22;;;;;;;13.55;4.05;;;;;;;;;;5011677;28;20091;-38
2023/10/18 03:06:52;;;;;;;18.83;4.00;;;;;;;;;;5011552;28;20081;-38
2023/10/18 03:12:03;;;;;;;13.55;3.95;;;;;;;;;;5011705;28;20022;-38
2023/10/18 03:14:54;;;;;;;11.00;3.83;;;;;;;;;;5011581;28;20026;-38
2023/10/18 03:17:28;;;;;;;14.23;4.18;;;;;;;;;;5011418;28;20397;-38
2023/10/18 03:19:56;;;;;;;15.13;3.70;;;;;;;;;;5011481;28;20396;-38
2023/10/18 03:22:25;;;;;;;12.20;3.33;;;;;;;;;;5011419;28;20034;-38
2023/10/18 03:24:56;;;;;;;17.20;3.30;;;;;;;;;;5023373;28;20034;-38
2023/10/18 03:27:32;;;;;;;15.73;3.47;;;;;;;;;;5031052;28;20100;-37
2023/10/18 03:30:01;;;;;;;9.48;3.38;;;;;;;;;;5031037;28;20034;-37
2023/10/18 03:32:28;;;;;;;11.25;3.47;;;;;;;;;;5031109;28;20127;-37
2023/10/18 03:34:56;;;;;;;9.93;3.70;;;;;;;;;;5031169;28;20022;-38
2023/10/18 03:37:26;;;;;;;8.18;2.92;;;;;;;;;;5031059;28;20025;-37
2023/10/18 03:39:53;;;;;;;9.40;3.17;;;;;;;;;;5031065;28;20155;-37
2023/10/18 03:42:33;;;;;;;10.73;2.70;;;;;;;;;;5031149;28;20022;-37
2023/10/18 03:45:10;;;;;;;10.55;2.45;;;;;;;;;;5030976;28;20060;-38
2023/10/18 03:47:38;;;;;;;9.38;2.30;;;;;;;;;;5029593;28;20025;-37
2023/10/18 03:50:14;;;;;;;9.93;2.47;;;;;;;;;;5030972;28;20041;-36
2023/10/18 03:52:41;;;;;;;6.05;2.05;;;;;;;;;;5034610;28;20116;-37
2023/10/18 03:55:18;;;;;;;6.38;1.70;;;;;;;;;;5034670;28;20017;-37
2023/10/18 03:57:45;;;;;;;9.15;1.92;;;;;;;;;;5034560;28;20498;-38
2023/10/18 04:03:08;;;;;;;9.18;1.98;;;;;;;;;;5034499;28;20034;-37
2023/10/18 04:05:46;;;;;;;9.27;2.25;;;;;;;;;;5034400;28;20039;-37
2023/10/18 04:08:14;;;;;;;4.53;1.55;;;;;;;;;;5034289;28;20022;-37
2023/10/18 04:10:46;;;;;;;8.20;1.65;;;;;;;;;;5034268;28;20018;-39
2023/10/18 04:13:13;;;;;;;4.95;1.20;;;;;;;;;;5034301;28;20488;-38
2023/10/18 04:15:49;;;;;;;5.63;1.27;;;;;;;;;;5034209;28;20053;-38
2023/10/18 04:18:25;;;;;;;6.22;1.48;;;;;;;;;;5034098;28;20048;-37
2023/10/18 04:20:53;;;;;;;6.25;1.55;;;;;;;;;;5034147;28;20032;-38
2023/10/18 04:23:25;;;;;;;7.35;1.80;;;;;;;;;;5034090;28;20074;-38
2023/10/18 04:26:00;;;;;;;5.47;1.77;;;;;;;;;;5033816;28;20082;-37
2023/10/18 04:28:37;;;;;;;5.18;1.20;;;;;;;;;;5033860;28;20033;-37
2023/10/18 04:31:08;;;;;;;7.47;1.30;;;;;;;;;;5033894;28;20033;-38
2023/10/18 04:33:36;;;;;;;5.40;1.43;;;;;;;;;;5034064;28;20380;-38
2023/10/18 04:36:10;;;;;;;4.43;1.10;;;;;;;;;;5033868;28;20024;-37
2023/10/18 04:38:47;;;;;;;4.70;1.15;;;;;;;;;;5034032;28;20030;-39
2023/10/18 04:41:24;;;;;;;4.93;1.25;;;;;;;;;;5033804;28;20029;-37
2023/10/18 04:43:52;;;;;;;5.28;1.20;;;;;;;;;;5033485;28;20057;-37
2023/10/18 04:46:22;;;;;;;4.28;1.30;;;;;;;;;;5033638;28;20391;-38
2023/10/18 04:51:33;;;;;;;4.95;1.30;;;;;;;;;;5033881;28;20021;-37
2023/10/18 04:54:11;;;;;;;2.70;0.93;;;;;;;;;;5033450;28;20056;-37
2023/10/18 04:56:38;;;;;;;6.20;1.10;;;;;;;;;;5033320;28;20028;-38
2023/10/18 05:01:59;;;;;;;4.28;1.02;;;;;;;;;;5023898;28;20028;-38
2023/10/18 05:04:35;;;;;;;3.60;1.15;;;;;;;;;;5033148;28;20087;-37
2023/10/18 05:07:15;;;;;;;4.15;0.88;;;;;;;;;;5033113;28;20055;-38
2023/10/18 05:09:46;;;;;;;2.17;1.08;;;;;;;;;;5033100;28;20511;-38
2023/10/18 05:22:52;;;;;;;4.05;1.15;;;;;;;;;;5032990;28;20614;-38
2023/10/18 05:28:00;;;;;;;4.20;1.20;;;;;;;;;;5032870;28;20537;-38
2023/10/18 05:31:20;;;;;;;3.42;1.08;;;;;;;;;;5032835;28;20403;-38
2023/10/18 05:33:47;;;;;;;6.20;1.05;;;;;;;;;;5032639;28;20040;-38
2023/10/18 05:44:00;;;;;;;2.97;0.88;;;;;;;;;;5032612;28;20140;-38
2023/10/18 05:46:35;;;;;;;4.32;1.40;;;;;;;;;;5032531;28;20025;-38
2023/10/18 05:49:04;;;;;;;2.17;0.95;;;;;;;;;;5032443;28;20029;-38
2023/10/18 05:51:38;;;;;;;2.30;1.05;;;;;;;;;;5032408;28;20067;-39
2023/10/18 05:54:08;;;;;;;3.47;1.00;;;;;;;;;;5032687;28;20128;-38
2023/10/18 05:56:35;;;;;;;3.92;1.10;;;;;;;;;;5032300;28;20021;-38
2023/10/18 06:01:50;;;;;;;3.03;0.90;;;;;;;;;;5011704;28;20031;-37
2023/10/18 06:07:13;;;;;;;2.10;0.90;;;;;;;;;;4991975;28;20066;-37
2023/10/18 06:09:48;;;;;;;3.28;0.93;;;;;;;;;;4992735;28;20042;-38
2023/10/18 06:12:22;;;;;;;4.85;1.48;;;;;;;;;;4992701;28;20030;-37
2023/10/18 06:14:52;;;;;;;4.75;0.90;;;;;;;;;;4992540;28;20034;-37
2023/10/18 06:17:20;;;;;;;4.28;1.10;;;;;;;;;;4992552;28;20027;-37
2023/10/18 06:19:50;;;;;;;1.52;0.98;;;;;;;;;;4992649;28;20030;-37
2023/10/18 06:22:50;;;;;;;3.95;0.90;;;;;;;;;;4992553;28;20069;-37
2023/10/18 06:25:25;;;;;;;5.07;1.33;;;;;;;;;;4993080;28;20567;-38
2023/10/18 06:27:53;;;;;;;3.45;1.08;;;;;;;;;;4992466;28;20037;-38
2023/10/18 06:30:24;;;;;;;2.95;0.75;;;;;;;;;;4992379;28;20058;-37
2023/10/18 06:32:51;;;;;;;3.78;1.00;;;;;;;;;;4992434;28;20041;-37
2023/10/18 06:35:26;;;;;;;1.65;0.80;;;;;;;;;;4992338;28;20389;-38
2023/10/18 06:37:54;;;;;;;3.65;0.80;;;;;;;;;;4992429;28;20101;-37
2023/10/18 06:40:43;;;;;;;3.15;1.00;;;;;;;;;;4992409;28;20091;-37
2023/10/18 06:43:12;;;;;;;3.22;1.10;;;;;;;;;;4992188;28;20046;-38
2023/10/18 06:45:40;;;;;;;2.08;1.00;;;;;;;;;;4992192;28;20488;-37
2023/10/18 06:48:13;;;;;;;2.50;0.95;;;;;;;;;;4992276;28;20425;-38
2023/10/18 06:50:41;;;;;;;1.45;0.80;;;;;;;;;;4992304;28;20654;-38
2023/10/18 06:53:11;;;;;;;3.38;0.80;;;;;;;;;;4992245;28;20027;-38
2023/10/18 06:58:22;;;;;;;3.47;0.93;;;;;;;;;;4992198;28;20026;-37
2023/10/18 07:01:00;;;;;;;1.88;0.80;;;;;;;;;;4992179;28;20014;-37
2023/10/18 07:03:27;;;;;;;3.30;1.40;;;;;;;;;;4992079;28;20118;-38
2023/10/18 07:05:57;;;;;;;3.13;1.00;;;;;;;;;;4991936;28;20033;-37
2023/10/18 07:08:33;;;;;;;2.60;1.13;;;;;;;;;;4992075;28;20027;-37
2023/10/18 07:11:08;;;;;;;3.72;1.08;;;;;;;;;;4992079;28;20460;-38
2023/10/18 07:13:43;;;;;;;2.05;1.00;;;;;;;;;;4990753;28;20650;-38
2023/10/18 07:16:48;;;;;;;2.03;0.90;;;;;;;;;;4992206;28;20026;-37
2023/10/18 07:19:21;;;;;;;2.78;0.80;;;;;;;;;;4992524;28;20039;-38
2023/10/18 07:21:48;;;;;;;2.70;0.88;;;;;;;;;;4991946;28;20030;-38
2023/10/18 07:24:17;;;;;;;2.30;0.90;;;;;;;;;;4992018;28;20057;-38
2023/10/18 07:26:47;;;;;;;4.60;0.95;;;;;;;;;;4994436;28;20066;-38
2023/10/18 07:29:15;;;;;;;1.58;0.80;;;;;;;;;;4995747;28;20027;-38
2023/10/18 07:31:48;;;;;;;2.13;0.90;;;;;;;;;;4995742;28;20520;-37
2023/10/18 07:34:18;;;;;;;2.83;0.90;;;;;;;;;;4995678;28;20027;-37
2023/10/18 07:36:45;;;;;;;1.92;1.00;;;;;;;;;;4995598;28;20512;-38
2023/10/18 07:39:13;;;;;;;3.03;0.98;;;;;;;;;;4995576;28;20080;-37
2023/10/18 07:41:40;;;;;;;3.70;0.88;;;;;;;;;;4995557;28;20034;-37
2023/10/18 07:44:07;;;;;;;5.60;1.27;;;;;;;;;;4995318;28;20050;-38
2023/10/18 07:46:39;;;;;;;3.17;0.90;;;;;;;;;;4995419;28;20416;-37
2023/10/18 07:49:15;;;;;;;4.88;0.90;;;;;;;;;;4995393;28;20031;-37
2023/10/18 07:51:48;;;;;;;4.72;0.85;;;;;;;;;;4995418;28;20023;-37
2023/10/18 07:54:15;;;;;;;2.28;1.05;;;;;;;;;;4995275;28;20033;-38
2023/10/18 07:56:54;;;;;;;3.30;0.95;;;;;;;;;;4995100;28;20022;-37
2023/10/18 07:59:29;;;;;;;4.32;0.90;;;;;;;;;;4995194;28;20117;-36
2023/10/18 08:04:42;;;;;;;2.45;0.80;;;;;;;;;;4995352;28;20409;-37
2023/10/18 08:07:15;;;;;;;1.52;0.70;;;;;;;;;;4995053;28;20022;-38
2023/10/18 08:09:43;;;;;;;3.33;0.70;;;;;;;;;;4994952;28;20789;-38
2023/10/18 08:12:28;;;;;;;2.58;0.90;;;;;;;;;;4994918;28;20101;-38
2023/10/18 08:14:56;;;;;;;1.65;0.80;;;;;;;;;;4994906;28;20097;-36
2023/10/18 08:17:30;;;;;;;3.17;0.80;;;;;;;;;;4994636;28;20472;-37
2023/10/18 08:22:47;;;;;;;2.28;0.82;;;;;;;;;;4995037;28;20085;-36
2023/10/18 08:25:24;;;;;;;3.25;0.98;;;;;;;;;;4994672;28;20038;-37
2023/10/18 08:27:51;;;;;;;2.17;0.70;;;;;;;;;;4994696;28;20248;-36
2023/10/18 08:30:38;;;;;;;2.53;0.90;;;;;;;;;;4994607;28;20057;-37
2023/10/18 08:33:08;;;;;;;1.98;0.80;;;;;;;;;;4994574;28;20061;-36
2023/10/18 08:35:39;;;;;;;4.00;1.02;;;;;;;;;;4994506;28;20030;-37
2023/10/18 08:38:06;;;;;;;1.67;0.75;;;;;;;;;;4993256;28;20027;-38
2023/10/18 08:43:18;;;;;;;2.50;0.85;;;;;;;;;;4994260;28;20396;-36
2023/10/18 08:45:47;;;;;;;2.50;0.80;;;;;;;;;;4994267;28;20023;-36
2023/10/18 08:48:27;;;;;;;1.45;0.80;;;;;;;;;;4994406;28;20046;-37
2023/10/18 08:50:58;;;;;;;3.33;0.98;;;;;;;;;;4994234;28;20393;-37
2023/10/18 08:53:31;;;;;;;2.63;0.70;;;;;;;;;;4994197;28;20029;-37
2023/10/18 08:55:58;;;;;;;2.47;0.77;;;;;;;;;;5016279;28;20108;-37
2023/10/18 08:58:29;;;;;;;2.33;0.80;;;;;;;;;;5033420;28;20476;-38
2023/10/18 09:03:29;;;;;;;3.65;1.10;;;;;;;;;;5033621;28;20025;-37
2023/10/18 09:06:04;;;;;;;3.17;0.80;;;;;;;;;;5027188;28;20130;-36
2023/10/18 09:08:42;;;;;;;3.15;0.90;;;;;;;;;;5009893;28;20060;-36
2023/10/18 09:11:20;;;;;;;3.33;0.70;;;;;;;;;;5013481;28;20026;-36
2023/10/18 09:14:08;;;;;;;3.38;0.80;;;;;;;;;;5013295;28;20030;-37
2023/10/18 09:16:39;;;;;;;3.60;0.77;;;;;;;;;;5013383;28;20030;-37
2023/10/18 09:19:09;;;;;;;2.25;0.93;;;;;;;;;;5012827;28;20064;-37
2023/10/18 09:21:42;;;;;;;2.17;0.70;;;;;;;;;;5005083;28;20497;-36
2023/10/18 09:24:09;;;;;;;3.45;0.90;;;;;;;;;;4993504;28;20058;-36
2023/10/18 09:26:46;;;;;;;5.13;0.80;;;;;;;;;;4993375;28;20490;-37
2023/10/18 09:29:13;;;;;;;4.68;0.75;;;;;;;;;;4995546;28;20041;-37
2023/10/18 09:31:54;;;;;;;5.88;0.90;;;;;;;;;;5001563;28;20026;-40
2023/10/18 09:34:26;;;;;;;7.40;1.00;;;;;;;;;;4993261;28;20409;-39
2023/10/18 09:36:53;;;;;;;4.03;0.90;;;;;;;;;;5002535;28;20081;-39
2023/10/18 09:42:15;;;;;;;6.63;1.15;;;;;;;;;;5001699;28;20069;-39
2023/10/18 09:44:42;;;;;;;4.78;0.95;;;;;;;;;;4995825;28;20116;-39
2023/10/18 09:47:09;;;;;;;10.20;1.20;;;;;;;;;;5011967;28;20026;-39
2023/10/18 09:49:39;;;;;;;9.38;0.80;;;;;;;;;;5012161;28;20041;-39
2023/10/18 09:52:07;;;;;;;5.55;1.20;;;;;;;;;;5012776;28;20022;-39
2023/10/18 09:54:34;;;;;;;6.53;1.33;;;;;;;;;;5012612;28;20022;-39
2023/10/18 09:57:02;;;;;;;7.10;1.10;;;;;;;;;;5012529;28;20028;-39
2023/10/18 09:59:37;;;;;;;9.90;1.35;;;;;;;;;;5012637;28;20034;-39
2023/10/18 10:02:15;;;;;;;6.13;1.00;;;;;;;;;;5007908;28;20035;-40
2023/10/18 10:04:42;;;;;;;6.07;1.05;;;;;;;;;;5005896;28;20499;-40
2023/10/18 10:07:36;;;;;;;2.20;0.73;;;;;;;;;;5009245;28;20035;-39
2023/10/18 10:10:17;;;;;;;4.20;1.10;;;;;;;;;;4995066;28;20042;-40
2023/10/18 10:12:45;;;;;;;3.90;0.90;;;;;;;;;;4993874;28;20886;-39
2023/10/18 10:15:17;;;;;;;16.67;1.10;;;;;;;;;;5002142;28;20076;-36
2023/10/18 10:17:50;;;;;;;4.97;1.00;;;;;;;;;;5000673;28;20027;-36
2023/10/18 10:20:21;;;;;;;5.72;1.08;;;;;;;;;;4998378;28;20258;-37
2023/10/18 10:22:48;;;;;;;6.80;1.38;;;;;;;;;;5000733;28;20477;-38
2023/10/18 10:25:19;;;;;;;9.48;1.45;;;;;;;;;;5000609;28;20030;-36
2023/10/18 10:27:59;;;;;;;2.50;0.90;;;;;;;;;;5002380;28;20037;-41
2023/10/18 10:30:35;;;;;;;9.95;1.50;;;;;;;;;;5002209;28;20029;-37
2023/10/18 10:33:11;;;;;;;12.02;1.38;;;;;;;;;;5001345;28;20019;-36
2023/10/18 10:35:47;;;;;;;6.65;1.05;;;;;;;;;;4999098;28;20035;-37
2023/10/18 10:38:26;;;;;;;5.13;1.00;;;;;;;;;;5000600;28;20085;-35
2023/10/18 10:44:06;;;;;;;9.32;1.13;;;;;;;;;;5002032;28;20060;-38
2023/10/18 10:46:37;;;;;;;7.18;1.50;;;;;;;;;;5000672;28;20432;-36
2023/10/18 10:49:28;;;;;;;8.73;1.17;;;;;;;;;;5001281;28;20172;-37
2023/10/18 10:51:56;;;;;;;6.55;1.23;;;;;;;;;;5002034;28;20036;-38
2023/10/18 10:54:29;;;;;;;60.70;2.88;;;;;;;;;;5000424;28;20109;-37
2023/10/18 10:56:58;;;;;;;6.32;1.52;;;;;;;;;;5002259;28;20033;-36
2023/10/18 10:59:26;;;;;;;13.77;1.40;;;;;;;;;;5001871;28;20042;-37
2023/10/18 11:04:27;;;;;;;11.23;1.60;;;;;;;;;;4999709;28;20065;-37
2023/10/18 11:07:03;;;;;;;19.35;2.20;;;;;;;;;;5005263;28;20034;-37
2023/10/18 11:09:38;;;;;;;11.65;1.70;;;;;;;;;;5004621;28;20471;-37
2023/10/18 11:12:17;;;;;;;16.33;2.15;;;;;;;;;;5004086;28;20061;-38
2023/10/18 11:14:50;;;;;;;13.95;2.15;;;;;;;;;;5004041;28;20030;-36
2023/10/18 11:17:17;;;;;;;12.07;1.58;;;;;;;;;;5005097;28;20036;-36
2023/10/18 11:19:54;;;;;;;21.77;2.30;;;;;;;;;;5014923;28;20026;-36
2023/10/18 11:22:23;;;;;;;9.38;1.88;;;;;;;;;;5009180;28;20425;-37
2023/10/18 11:24:55;;;;;;;15.82;2.17;;;;;;;;;;5003377;28;20093;-37
2023/10/18 11:27:23;;;;;;;18.23;2.10;;;;;;;;;;4995483;28;20058;-36
2023/10/18 11:30:15;;;;;;;17.95;2.22;;;;;;;;;;4995714;28;20042;-37
2023/10/18 11:32:49;;;;;;;8.48;1.50;;;;;;;;;;4995739;28;20489;-37
2023/10/18 11:35:27;;;;;;;18.98;2.20;;;;;;;;;;4995639;28;20026;-37
2023/10/18 11:37:55;;;;;;;10.90;1.80;;;;;;;;;;4995577;28;20378;-36
2023/10/18 11:40:22;;;;;;;9.05;1.77;;;;;;;;;;5005784;28;20056;-35
2023/10/18 11:43:04;;;;;;;12.13;2.08;;;;;;;;;;5004288;28;20026;-37
2023/10/18 11:45:32;;;;;;;12.70;1.83;;;;;;;;;;4995344;28;20424;-35
2023/10/18 11:48:02;;;;;;;13.45;1.85;;;;;;;;;;4995246;28;20034;-36
2023/10/18 11:50:48;;;;;;;11.05;2.10;;;;;;;;;;4995210;28;20038;-35
2023/10/18 11:53:17;;;;;;;13.43;1.73;;;;;;;;;;4995415;28;20121;-35
2023/10/18 11:55:58;;;;;;;17.02;1.85;;;;;;;;;;4995212;28;20105;-35
2023/10/18 11:58:29;;;;;;;13.13;2.00;;;;;;;;;;4995386;28;20082;-35
2023/10/18 12:00:58;;;;;;;11.95;1.90;;;;;;;;;;4995225;28;20027;-36
2023/10/18 12:03:28;;;;;;;11.15;1.77;;;;;;;;;;4995193;28;20042;-36
2023/10/18 12:05:56;;;;;;;13.48;1.85;;;;;;;;;;4995117;28;20145;-34
2023/10/18 12:08:30;;;;;;;9.57;2.03;;;;;;;;;;4995100;28;20069;-34
2023/10/18 12:10:57;;;;;;;15.45;1.85;;;;;;;;;;4994856;28;20034;-35
2023/10/18 12:13:26;;;;;;;8.27;1.70;;;;;;;;;;4994879;28;20485;-33
2023/10/18 12:15:53;;;;;;;13.20;1.90;;;;;;;;;;4994829;28;20137;-33
2023/10/18 12:18:21;;;;;;;11.35;2.03;;;;;;;;;;4994885;28;20031;-33
2023/10/18 12:20:51;;;;;;;9.68;1.90;;;;;;;;;;4994861;28;20026;-34
2023/10/18 12:23:21;;;;;;;13.80;1.88;;;;;;;;;;4994651;28;20030;-37
2023/10/18 12:25:48;;;;;;;12.85;2.10;;;;;;;;;;4999886;28;20022;-35
2023/10/18 12:28:26;;;;;;;12.32;1.92;;;;;;;;;;5011349;28;20392;-36
2023/10/18 12:30:55;;;;;;;13.70;2.38;;;;;;;;;;5013664;28;20062;-36
2023/10/18 12:33:27;;;;;;;9.23;1.67;;;;;;;;;;5003183;28;20026;-35
2023/10/18 12:35:59;;;;;;;16.33;2.17;;;;;;;;;;5003256;28;20037;-34
2023/10/18 12:38:32;;;;;;;17.88;2.47;;;;;;;;;;5008334;28;20041;-36
2023/10/18 12:41:31;;;;;;;16.25;2.05;;;;;;;;;;5014021;28;20040;-36
2023/10/18 12:43:47;;;;;;;13.10;2.40;;;;;;;;;;5013316;28;20049;-37
2023/10/18 12:46:21;;;;;;;12.38;2.17;;;;;;;;;;5013943;28;20017;-36
2023/10/18 12:48:51;;;;;;;9.80;2.08;;;;;;;;;;5007922;28;20035;-36
2023/10/18 12:51:19;;;;;;;10.73;1.83;;;;;;;;;;5002354;28;20026;-37
2023/10/18 12:53:47;;;;;;;9.30;1.90;;;;;;;;;;5003820;28;20027;-36
2023/10/18 12:58:48;;;;;;;10.27;2.00;;;;;;;;;;5004336;28;20120;-36
2023/10/18 13:01:22;;;;;;;12.35;1.98;;;;;;;;;;5001780;28;20473;-36
2023/10/18 13:04:06;;;;;;;18.75;2.25;;;;;;;;;;5006220;28;20046;-36
2023/10/18 13:06:43;;;;;;;9.38;1.80;;;;;;;;;;5013143;28;20108;-35
2023/10/18 13:14:11;;;;;;;12.43;2.28;;;;;;;;;;4992162;28;20042;-37
2023/10/18 13:16:38;;;;;;;4.70;1.63;;;;;;;;;;4993633;28;20780;-35
2023/10/18 13:19:06;;;;;;;11.50;1.83;;;;;;;;;;5000086;28;20067;-36
2023/10/18 13:21:33;;;;;;;10.05;2.08;;;;;;;;;;5001427;28;20125;-36
2023/10/18 13:24:16;;;;;;;12.52;2.50;;;;;;;;;;5001242;28;20041;-36
2023/10/18 13:26:44;;;;;;;11.75;2.25;;;;;;;;;;5003675;28;20033;-36
2023/10/18 13:32:12;;;;;;;13.18;2.42;;;;;;;;;;5002539;28;20025;-36
2023/10/18 13:34:45;;;;;;;9.73;1.80;;;;;;;;;;5003480;28;20085;-36
2023/10/18 13:37:17;;;;;;;16.25;2.40;;;;;;;;;;5003668;28;20022;-36
2023/10/18 13:39:52;;;;;;;11.00;1.58;;;;;;;;;;5001225;28;20040;-35
2023/10/18 13:42:21;;;;;;;11.35;2.30;;;;;;;;;;5007858;28;20057;-36
2023/10/18 13:44:49;;;;;;;17.40;2.05;;;;;;;;;;5012506;28;20054;-36
2023/10/18 13:47:18;;;;;;;10.00;1.90;;;;;;;;;;5012743;28;20037;-36
2023/10/18 13:49:45;;;;;;;16.85;2.70;;;;;;;;;;5012666;28;20455;-36
2023/10/18 13:52:12;;;;;;;12.00;2.28;;;;;;;;;;5002680;28;20045;-35
2023/10/18 13:54:40;;;;;;;14.15;2.10;;;;;;;;;;4999750;28;20055;-36
2023/10/18 13:57:07;;;;;;;9.77;2.03;;;;;;;;;;4995364;28;20025;-35
2023/10/18 13:59:36;;;;;;;9.70;2.05;;;;;;;;;;5010698;28;20026;-36
2023/10/18 14:02:04;;;;;;;11.60;1.83;;;;;;;;;;5011891;28;20030;-35
2023/10/18 14:04:32;;;;;;;12.02;1.92;;;;;;;;;;5012087;28;20044;-36
2023/10/18 14:06:59;;;;;;;17.55;2.55;;;;;;;;;;5011055;28;20030;-36
2023/10/18 14:09:32;;;;;;;11.32;1.95;;;;;;;;;;5012253;28;20116;-35
2023/10/18 14:12:01;;;;;;;12.77;1.95;;;;;;;;;;5010927;28;20480;-36
2023/10/18 14:14:28;;;;;;;13.75;2.20;;;;;;;;;;5007540;28;20045;-36
2023/10/18 14:16:55;;;;;;;17.38;2.67;;;;;;;;;;5001602;28;20026;-36
2023/10/18 14:19:24;;;;;;;13.30;2.45;;;;;;;;;;5000779;28;20030;-35
2023/10/18 14:21:51;;;;;;;25.73;3.30;;;;;;;;;;5002102;28;20575;-36
2023/10/18 14:24:21;;;;;;;17.92;3.25;;;;;;;;;;5002573;28;20049;-35
2023/10/18 14:26:48;;;;;;;31.58;3.75;;;;;;;;;;5001025;28;20513;-35
2023/10/18 14:29:15;;;;;;;30.92;3.47;;;;;;;;;;5001383;28;20088;-35
2023/10/18 14:31:42;;;;;;;37.88;3.35;;;;;;;;;;5002615;28;20038;-37
2023/10/18 14:34:10;;;;;;;30.05;2.92;;;;;;;;;;5002499;28;20025;-36
2023/10/18 14:36:37;;;;;;;33.95;3.78;;;;;;;;;;5001285;28;20025;-35
2023/10/18 14:39:04;;;;;;;28.80;3.40;;;;;;;;;;4999524;28;20516;-36
2023/10/18 14:41:31;;;;;;;30.63;2.72;;;;;;;;;;5001916;28;20026;-36
2023/10/18 14:43:58;;;;;;;28.73;3.00;;;;;;;;;;5003059;28;20055;-36
2023/10/18 14:46:27;;;;;;;17.48;2.55;;;;;;;;;;5003735;28;20107;-35
2023/10/18 14:48:56;;;;;;;24.85;2.85;;;;;;;;;;4995875;28;20181;-35
2023/10/18 14:51:24;;;;;;;24.67;3.13;;;;;;;;;;5002336;28;20019;-36
2023/10/18 14:53:52;;;;;;;21.98;2.75;;;;;;;;;;5000349;28;20046;-36
2023/10/18 14:56:19;;;;;;;20.42;2.63;;;;;;;;;;5007505;28;20041;-36
2023/10/18 14:58:50;;;;;;;23.30;2.95;;;;;;;;;;4992249;28;20038;-36
2023/10/18 15:01:17;;;;;;;23.15;2.83;;;;;;;;;;4992207;28;20018;-35
2023/10/18 15:03:49;;;;;;;20.00;2.50;;;;;;;;;;4992335;28;20133;-36
2023/10/18 15:06:19;;;;;;;19.77;3.25;;;;;;;;;;5000239;28;20034;-35
2023/10/18 15:08:49;;;;;;;23.58;2.85;;;;;;;;;;5010850;28;20037;-36
2023/10/18 15:11:20;;;;;;;19.42;2.83;;;;;;;;;;5011447;28;20144;-36
2023/10/18 15:13:47;;;;;;;22.75;3.13;;;;;;;;;;5011301;28;20480;-36
2023/10/18 15:16:15;;;;;;;17.30;2.53;;;;;;;;;;5011522;28;20037;-36
2023/10/18 15:18:43;;;;;;;11.23;2.15;;;;;;;;;;5011232;28;20494;-35
2023/10/18 15:21:10;;;;;;;19.15;2.90;;;;;;;;;;5011398;28;20029;-36
2023/10/18 15:23:38;;;;;;;12.65;2.13;;;;;;;;;;5011204;28;20034;-36
2023/10/18 15:26:05;;;;;;;17.05;2.10;;;;;;;;;;5011105;28;20484;-36
2023/10/18 15:28:35;;;;;;;14.25;2.15;;;;;;;;;;5011179;28;20033;-35
2023/10/18 15:31:08;;;;;;;13.70;2.28;;;;;;;;;;5011044;28;20053;-36
2023/10/18 15:33:37;;;;;;;18.30;2.47;;;;;;;;;;5010582;28;20589;-36
2023/10/18 15:36:13;;;;;;;12.88;2.40;;;;;;;;;;5022096;28;20433;-36
2023/10/18 15:38:41;;;;;;;15.02;1.95;;;;;;;;;;5011372;28;20080;-36
2023/10/18 15:41:08;;;;;;;11.98;1.90;;;;;;;;;;5011272;28;20388;-33
2023/10/18 15:43:47;;;;;;;18.60;2.28;;;;;;;;;;5011231;28;20046;-33
2023/10/18 15:46:14;;;;;;;11.20;2.20;;;;;;;;;;5011386;28;20040;-33
2023/10/18 15:48:48;;;;;;;18.35;1.90;;;;;;;;;;5015058;28;20026;-32
2023/10/18 15:51:15;;;;;;;17.55;2.63;;;;;;;;;;5014844;28;20032;-37
2023/10/18 15:53:43;;;;;;;16.70;2.13;;;;;;;;;;5004155;28;20034;-36
2023/10/18 15:56:10;;;;;;;15.13;2.10;;;;;;;;;;5005029;28;20026;-38
2023/10/18 15:58:38;;;;;;;16.85;2.55;;;;;;;;;;5003458;28;20759;-38
2023/10/18 16:01:08;;;;;;;19.73;2.30;;;;;;;;;;4996774;28;20029;-38
2023/10/18 16:03:35;;;;;;;23.20;2.70;;;;;;;;;;5007041;28;20442;-39
2023/10/18 16:06:02;;;;;;;19.17;2.75;;;;;;;;;;5013824;28;20030;-38
2023/10/18 16:08:29;;;;;;;17.58;3.08;;;;;;;;;;5013384;28;20026;-38
2023/10/18 16:10:56;;;;;;;20.98;3.00;;;;;;;;;;5023602;28;20038;-38
2023/10/18 16:13:23;;;;;;;17.90;2.63;;;;;;;;;;5028908;28;20037;-38